Time;durP1;ratioP1;P1;durP2;ratioP2;P2;SDS_P1;SDS_P2;PMS_P1;PMS_P2;Temp;Humidity;BMP_temperature;BMP_pressure;BME280_temperature;BME280_humidity;BME280_pressure;Samples;Min_cycle;Max_cycle;Signal;HPM_P1;HPM_P2
2021/09/03 00:00:53;;;;;;;4.72;1.47;;;;;;;14.61;74.21;100764.24;1852756;77;21036;-59
2021/09/03 00:03:22;;;;;;;4.37;1.60;;;;;;;14.63;74.21;100770.30;1852848;77;21060;-60
2021/09/03 00:05:51;;;;;;;5.47;1.50;;;;;;;14.60;74.15;100766.49;1852906;77;21545;-60
2021/09/03 00:08:19;;;;;;;5.08;1.52;;;;;;;14.57;73.75;100774.63;1852779;77;21065;-60
2021/09/03 00:10:48;;;;;;;5.05;1.57;;;;;;;14.55;73.54;100773.83;1852812;77;21059;-60
2021/09/03 00:13:17;;;;;;;3.37;1.50;;;;;;;14.52;73.32;100777.97;1852848;77;21051;-60
2021/09/03 00:15:46;;;;;;;3.55;1.40;;;;;;;14.50;73.26;100783.83;1852869;77;21451;-59
2021/09/03 00:18:14;;;;;;;4.65;1.62;;;;;;;14.47;72.55;100782.66;1852800;77;21486;-61
2021/09/03 00:20:43;;;;;;;6.33;1.80;;;;;;;14.41;72.29;100788.30;1854336;76;21122;-60
2021/09/03 00:23:12;;;;;;;4.97;1.55;;;;;;;14.35;72.12;100791.26;1873869;76;21051;-59
2021/09/03 00:25:41;;;;;;;5.97;1.65;;;;;;;14.28;71.58;100789.42;1873944;76;21070;-59
2021/09/03 00:28:10;;;;;;;7.70;1.65;;;;;;;14.21;72.02;100786.23;1873908;76;21114;-60
2021/09/03 00:30:39;;;;;;;4.17;1.45;;;;;;;14.18;72.08;100789.52;1873792;76;21533;-60
2021/09/03 00:33:07;;;;;;;6.10;1.82;;;;;;;14.15;71.39;100790.55;1873731;76;21043;-60
2021/09/03 00:35:36;;;;;;;7.65;1.62;;;;;;;14.14;71.27;100788.83;1873883;76;21034;-60
2021/09/03 00:38:05;;;;;;;6.42;1.30;;;;;;;14.12;71.41;100788.05;1873895;76;21058;-60
2021/09/03 00:40:33;;;;;;;3.30;1.40;;;;;;;14.10;71.32;100800.05;1873776;76;21054;-60
2021/09/03 00:43:02;;;;;;;3.33;1.37;;;;;;;14.09;70.77;100794.83;1873893;76;21027;-60
2021/09/03 00:45:30;;;;;;;4.97;1.45;;;;;;;14.13;70.41;100788.90;1873711;76;21046;-61
2021/09/03 00:47:59;;;;;;;3.55;1.32;;;;;;;14.14;69.57;100786.17;1873898;76;21019;-60
2021/09/03 00:50:28;;;;;;;5.08;1.42;;;;;;;14.15;69.17;100776.47;1873901;76;21039;-60
2021/09/03 00:52:57;;;;;;;2.45;1.00;;;;;;;14.15;69.03;100782.61;1873905;76;21129;-60
2021/09/03 00:55:25;;;;;;;5.17;1.60;;;;;;;14.13;69.27;100789.78;1873850;76;21070;-60
2021/09/03 00:57:54;;;;;;;7.65;1.80;;;;;;;14.09;69.17;100794.38;1873823;76;21031;-60
2021/09/03 01:00:23;;;;;;;4.83;1.72;;;;;;;14.06;69.35;100793.20;1873890;76;21082;-60
2021/09/03 01:02:51;;;;;;;3.35;1.42;;;;;;;14.02;69.50;100800.09;1873790;76;21584;-60
2021/09/03 01:05:23;;;;;;;4.70;1.72;;;;;;;13.98;69.49;100797.19;1873988;76;21584;-60
2021/09/03 01:07:52;;;;;;;5.83;1.15;;;;;;;13.95;69.68;100802.19;1873749;76;21148;-60
2021/09/03 01:10:22;;;;;;;4.03;1.40;;;;;;;13.95;69.84;100811.92;1874088;76;21528;-60
2021/09/03 01:12:52;;;;;;;2.67;1.25;;;;;;;13.95;69.74;100809.28;1873817;76;21540;-60
2021/09/03 01:15:21;;;;;;;3.65;1.20;;;;;;;13.98;69.54;100806.45;1873880;76;21208;-60
2021/09/03 01:17:50;;;;;;;6.65;1.98;;;;;;;14.00;69.12;100812.52;1873847;76;21023;-60
2021/09/03 01:20:19;;;;;;;5.08;1.25;;;;;;;14.00;68.89;100815.16;1873873;76;21050;-60
2021/09/03 01:22:48;;;;;;;3.90;1.62;;;;;;;13.99;68.67;100806.37;1868370;76;21584;-60
2021/09/03 01:25:17;;;;;;;5.28;1.32;;;;;;;14.02;68.08;100809.35;1864870;77;21126;-60
2021/09/03 01:27:45;;;;;;;4.45;1.30;;;;;;;14.03;68.25;100818.98;1865160;77;21059;-60
2021/09/03 01:30:16;;;;;;;6.95;1.32;;;;;;;14.01;67.77;100818.22;1865088;77;21055;-60
2021/09/03 01:32:47;;;;;;;2.00;1.00;;;;;;;14.00;67.19;100825.75;1865096;77;21118;-60
2021/09/03 01:35:16;;;;;;;6.30;1.67;;;;;;;13.99;67.11;100824.91;1864977;77;21522;-59
2021/09/03 01:37:45;;;;;;;3.70;1.22;;;;;;;13.97;67.15;100827.26;1864824;77;21043;-60
2021/09/03 01:40:14;;;;;;;5.17;1.55;;;;;;;13.95;67.06;100823.84;1865161;76;21192;-61
2021/09/03 01:42:42;;;;;;;4.67;1.17;;;;;;;13.90;67.37;100824.91;1865086;77;21048;-59
2021/09/03 01:45:11;;;;;;;6.70;1.27;;;;;;;13.87;67.77;100826.89;1865074;77;21063;-59
2021/09/03 01:47:40;;;;;;;2.72;1.40;;;;;;;13.84;67.92;100830.53;1865104;77;21051;-59
2021/09/03 01:50:09;;;;;;;4.00;1.20;;;;;;;13.82;68.04;100839.02;1864920;77;21117;-60
2021/09/03 01:52:37;;;;;;;4.12;1.60;;;;;;;13.79;68.30;100833.87;1865070;77;21443;-60
2021/09/03 01:55:07;;;;;;;2.55;1.35;;;;;;;13.76;68.37;100834.05;1864947;77;21059;-59
2021/09/03 01:57:35;;;;;;;4.20;1.40;;;;;;;13.74;67.97;100833.27;1865031;77;21055;-59
2021/09/03 02:00:06;;;;;;;3.42;1.52;;;;;;;13.74;68.30;100839.89;1865049;77;21125;-59
2021/09/03 02:02:36;;;;;;;4.15;1.20;;;;;;;13.72;68.28;100845.70;1864624;76;21099;-60
2021/09/03 02:05:05;;;;;;;3.62;1.15;;;;;;;13.73;68.24;100841.28;1865020;77;21184;-59
2021/09/03 02:07:34;;;;;;;5.67;1.60;;;;;;;13.72;68.41;100845.70;1864958;77;21075;-59
2021/09/03 02:10:05;;;;;;;8.48;1.32;;;;;;;13.68;68.36;100846.80;1865073;77;21471;-59
2021/09/03 02:12:34;;;;;;;5.12;1.60;;;;;;;13.68;68.36;100845.47;1865055;77;21117;-60
2021/09/03 02:15:02;;;;;;;3.00;1.20;;;;;;;13.68;68.13;100843.70;1864953;77;21095;-59
2021/09/03 02:17:31;;;;;;;4.35;1.30;;;;;;;13.70;67.90;100847.56;1865003;77;21059;-59
2021/09/03 02:20:00;;;;;;;2.62;1.12;;;;;;;13.71;67.66;100847.49;1865063;77;21142;-59
2021/09/03 02:22:28;;;;;;;5.33;1.37;;;;;;;13.73;67.60;100855.36;1864967;77;21051;-59
2021/09/03 02:24:57;;;;;;;6.05;1.30;;;;;;;13.71;67.68;100853.27;1864960;77;21032;-59
2021/09/03 02:27:25;;;;;;;3.62;1.45;;;;;;;13.68;67.58;100850.31;1865031;77;21536;-59
2021/09/03 02:29:54;;;;;;;5.97;1.47;;;;;;;13.62;67.82;100848.44;1864856;77;21047;-60
2021/09/03 02:32:22;;;;;;;4.83;1.10;;;;;;;13.57;68.01;100862.34;1865025;77;21819;-59
2021/09/03 02:34:51;;;;;;;3.62;1.32;;;;;;;13.54;68.08;100861.17;1864949;77;21032;-60
2021/09/03 02:37:20;;;;;;;3.17;1.00;;;;;;;13.53;67.80;100871.37;1864872;77;21020;-59
2021/09/03 02:39:48;;;;;;;3.08;1.10;;;;;;;13.50;67.36;100869.28;1864908;77;21656;-59
2021/09/03 02:42:17;;;;;;;3.45;1.00;;;;;;;13.54;67.22;100870.42;1864938;77;21148;-60
2021/09/03 02:44:46;;;;;;;4.62;1.27;;;;;;;13.54;67.50;100875.27;1865034;77;21098;-60
2021/09/03 02:47:14;;;;;;;3.58;1.27;;;;;;;13.56;67.66;100874.73;1865049;77;21047;-60
2021/09/03 02:49:43;;;;;;;3.65;0.95;;;;;;;13.54;67.86;100873.95;1865009;77;21067;-60
2021/09/03 02:52:11;;;;;;;3.85;1.15;;;;;;;13.56;67.92;100873.41;1865076;77;21094;-59
2021/09/03 02:54:40;;;;;;;2.67;1.20;;;;;;;13.63;67.35;100863.36;1864973;77;21062;-60
2021/09/03 02:57:09;;;;;;;4.90;1.27;;;;;;;13.71;67.11;100857.23;1865084;77;21130;-59
2021/09/03 02:59:37;;;;;;;3.55;1.30;;;;;;;13.79;67.05;100856.36;1865107;77;21055;-59
2021/09/03 03:02:06;;;;;;;3.47;1.02;;;;;;;13.79;66.40;100852.39;1865102;77;21067;-59
2021/09/03 03:04:34;;;;;;;4.75;1.37;;;;;;;13.77;66.47;100848.97;1865145;77;21035;-59
2021/09/03 03:07:03;;;;;;;4.17;1.70;;;;;;;13.74;66.45;100850.47;1865013;77;21039;-59
2021/09/03 03:09:32;;;;;;;5.03;1.10;;;;;;;13.73;66.65;100856.69;1864919;77;21140;-59
2021/09/03 03:12:01;;;;;;;5.05;1.25;;;;;;;13.70;66.86;100875.35;1865041;77;21530;-60
2021/09/03 03:14:33;;;;;;;4.83;1.00;;;;;;;13.66;66.95;100871.15;1865127;77;21094;-59
2021/09/03 03:17:00;;;;;;;4.45;1.20;;;;;;;13.64;67.21;100874.34;1864959;76;21113;-59
2021/09/03 03:19:30;;;;;;;4.30;1.32;;;;;;;13.64;67.30;100883.12;1865121;77;21054;-59
2021/09/03 03:21:59;;;;;;;4.47;1.30;;;;;;;13.68;66.77;100870.61;1865021;77;21035;-59
2021/09/03 03:24:27;;;;;;;2.50;1.30;;;;;;;13.72;66.99;100880.09;1856696;76;21542;-59
2021/09/03 03:26:56;;;;;;;6.05;1.32;;;;;;;13.71;66.89;100888.98;1852891;77;21051;-59
2021/09/03 03:29:26;;;;;;;5.30;1.15;;;;;;;13.69;66.75;100877.63;1852861;77;21044;-59
2021/09/03 03:31:55;;;;;;;3.55;1.02;;;;;;;13.69;66.94;100885.56;1852854;77;21467;-59
2021/09/03 03:34:24;;;;;;;3.92;1.20;;;;;;;13.66;67.15;100889.20;1852824;77;21118;-59
2021/09/03 03:36:52;;;;;;;2.52;1.12;;;;;;;13.66;67.39;100902.42;1852820;77;21836;-59
2021/09/03 03:39:21;;;;;;;4.37;1.10;;;;;;;13.63;67.52;100898.63;1852706;77;21081;-59
2021/09/03 03:41:50;;;;;;;6.67;1.45;;;;;;;13.62;67.72;100904.00;1852834;77;21540;-60
2021/09/03 03:44:19;;;;;;;3.83;1.17;;;;;;;13.69;67.85;100909.38;1852742;77;21056;-60
2021/09/03 03:46:48;;;;;;;3.00;1.20;;;;;;;13.72;68.12;100906.56;1852670;77;21048;-60
2021/09/03 03:49:16;;;;;;;4.25;2.33;;;;;;;13.76;68.23;100906.82;1852833;77;21063;-60
2021/09/03 03:51:45;;;;;;;3.47;2.22;;;;;;;13.83;68.26;100896.77;1852802;77;21048;-59
2021/09/03 03:54:13;;;;;;;3.65;1.27;;;;;;;13.93;68.17;100899.83;1852829;77;21059;-59
2021/09/03 03:56:42;;;;;;;2.22;0.80;;;;;;;14.02;68.00;100898.89;1852823;77;21016;-59
2021/09/03 03:59:11;;;;;;;3.72;1.10;;;;;;;14.10;68.05;100895.84;1852836;77;21047;-59
2021/09/03 04:01:39;;;;;;;4.17;1.10;;;;;;;14.18;67.79;100894.97;1852734;77;21197;-59
2021/09/03 04:04:08;;;;;;;2.80;1.37;;;;;;;14.23;67.82;100896.91;1852818;77;21032;-59
2021/09/03 04:06:36;;;;;;;2.83;1.07;;;;;;;14.42;67.61;100901.25;1852793;77;21043;-60
2021/09/03 04:09:05;;;;;;;2.42;1.12;;;;;;;14.83;67.35;100900.41;1852703;77;21128;-59
2021/09/03 04:11:34;;;;;;;2.72;1.20;;;;;;;15.38;67.13;100911.09;1852823;77;21059;-60
2021/09/03 04:14:05;;;;;;;8.58;4.10;;;;;;;15.83;65.51;100900.12;1852647;77;21036;-60
2021/09/03 04:16:33;;;;;;;3.52;1.35;;;;;;;16.16;64.98;100904.87;1852703;77;21107;-59
2021/09/03 04:19:01;;;;;;;1.77;1.10;;;;;;;16.25;63.45;100903.44;1852771;77;21094;-60
2021/09/03 04:21:30;;;;;;;3.05;1.20;;;;;;;16.02;63.54;100903.02;1852855;77;21028;-59
2021/09/03 04:23:58;;;;;;;1.90;1.20;;;;;;;15.93;63.52;100906.22;1852837;76;21145;-61
2021/09/03 04:26:27;;;;;;;4.15;1.10;;;;;;;16.17;63.81;100919.36;1852752;77;21036;-60
2021/09/03 04:28:57;;;;;;;2.60;0.95;;;;;;;16.58;63.54;100927.99;1852761;77;21107;-59
2021/09/03 04:31:25;;;;;;;3.60;1.05;;;;;;;16.85;63.73;100936.56;1852862;77;21494;-59
2021/09/03 04:33:54;;;;;;;2.95;1.07;;;;;;;16.62;63.02;100930.44;1852821;77;21052;-59
2021/09/03 04:36:26;;;;;;;5.85;1.07;;;;;;;16.32;62.94;100924.72;1852789;77;21048;-60
2021/09/03 04:38:54;;;;;;;3.58;1.05;;;;;;;16.09;63.23;100940.71;1852752;77;21178;-60
2021/09/03 04:41:23;;;;;;;2.58;1.00;;;;;;;15.96;63.37;100944.08;1852726;76;21047;-59
2021/09/03 04:43:51;;;;;;;1.45;0.70;;;;;;;15.83;63.77;100943.09;1852848;77;21102;-59
2021/09/03 04:46:20;;;;;;;6.45;1.02;;;;;;;15.73;63.96;100937.43;1852796;77;21025;-59
2021/09/03 04:48:48;;;;;;;3.42;1.15;;;;;;;15.66;64.14;100944.48;1852740;77;21578;-59
2021/09/03 04:51:17;;;;;;;2.22;0.80;;;;;;;15.59;64.40;100954.12;1852866;77;21055;-59
2021/09/03 04:53:46;;;;;;;2.50;1.20;;;;;;;15.52;64.67;100955.41;1852621;77;21020;-59
2021/09/03 04:56:14;;;;;;;6.28;1.92;;;;;;;15.45;64.73;100952.72;1852836;77;21059;-59
2021/09/03 04:58:43;;;;;;;10.32;4.58;;;;;;;15.38;64.76;100953.55;1852812;77;21122;-59
2021/09/03 05:01:11;;;;;;;14.28;7.90;;;;;;;15.34;65.12;100952.46;1852821;77;21020;-59
2021/09/03 05:03:40;;;;;;;15.15;9.25;;;;;;;15.32;65.24;100952.55;1852859;77;21044;-59
2021/09/03 05:06:09;;;;;;;8.70;5.37;;;;;;;15.33;65.39;100960.90;1852712;77;21047;-59
2021/09/03 05:08:38;;;;;;;9.53;5.08;;;;;;;15.33;65.52;100962.23;1852848;77;21052;-59
2021/09/03 05:11:06;;;;;;;7.85;5.47;;;;;;;15.34;65.71;100958.61;1852791;77;21106;-59
2021/09/03 05:13:35;;;;;;;3.87;2.25;;;;;;;15.35;65.27;100966.13;1852804;77;21114;-59
2021/09/03 05:16:04;;;;;;;3.65;2.00;;;;;;;15.40;65.39;100965.38;1852647;77;21091;-59
2021/09/03 05:18:33;;;;;;;4.20;1.52;;;;;;;15.71;65.45;100963.18;1852741;77;21076;-60
2021/09/03 05:21:01;;;;;;;4.17;1.75;;;;;;;16.56;64.72;100964.45;1852793;77;21555;-59
2021/09/03 05:23:30;;;;;;;7.35;3.72;;;;;;;17.43;64.61;100959.97;1852822;77;21068;-59
2021/09/03 05:25:59;;;;;;;3.77;2.00;;;;;;;17.75;62.61;100967.66;1867093;76;21168;-60
2021/09/03 05:28:30;;;;;;;5.47;1.47;;;;;;;18.11;62.20;100969.73;1873854;76;21026;-59
2021/09/03 05:30:58;;;;;;;2.70;1.27;;;;;;;18.83;61.26;100969.30;1873877;76;21510;-60
2021/09/03 05:33:27;;;;;;;3.22;1.12;;;;;;;19.47;60.35;100969.65;1873846;76;21059;-60
2021/09/03 05:35:56;;;;;;;2.80;0.88;;;;;;;19.98;58.07;100967.28;1873887;76;21140;-60
2021/09/03 05:38:25;;;;;;;2.47;1.07;;;;;;;19.63;56.80;100970.23;1873947;76;21506;-60
2021/09/03 05:40:53;;;;;;;1.90;0.68;;;;;;;19.58;56.03;100971.05;1873775;76;21156;-60
2021/09/03 05:43:22;;;;;;;1.80;0.90;;;;;;;19.90;56.18;100981.23;1873858;75;21164;-60
2021/09/03 05:45:51;;;;;;;4.03;1.25;;;;;;;19.63;55.98;100976.91;1873946;76;21106;-60
2021/09/03 05:48:19;;;;;;;3.02;1.00;;;;;;;19.17;55.30;100992.75;1873866;76;21059;-59
2021/09/03 05:50:48;;;;;;;3.20;0.82;;;;;;;18.83;55.96;100993.77;1873888;76;21000;-59
2021/09/03 05:53:17;;;;;;;4.17;1.02;;;;;;;18.55;56.41;100997.47;1873820;76;21039;-60
2021/09/03 05:55:45;;;;;;;8.18;0.98;;;;;;;18.32;56.90;101004.73;1873762;76;21051;-59
2021/09/03 05:58:14;;;;;;;4.85;1.00;;;;;;;18.03;57.43;101010.67;1873734;76;21047;-60
2021/09/03 06:00:42;;;;;;;4.67;1.70;;;;;;;17.83;57.97;101020.42;1873689;76;21051;-59
2021/09/03 06:03:11;;;;;;;1.57;0.90;;;;;;;17.51;58.77;101024.20;1873841;76;21501;-59
2021/09/03 06:05:39;;;;;;;3.50;1.37;;;;;;;17.24;59.66;101020.14;1873743;76;21015;-59
2021/09/03 06:08:08;;;;;;;12.03;2.65;;;;;;;17.02;60.27;101037.91;1873844;76;21485;-60
2021/09/03 06:10:37;;;;;;;2.98;0.98;;;;;;;17.00;60.92;101041.63;1873833;76;21039;-60
2021/09/03 06:13:05;;;;;;;3.67;1.72;;;;;;;17.08;61.59;101053.52;1873677;76;21086;-59
2021/09/03 06:15:34;;;;;;;9.05;3.33;;;;;;;17.10;62.00;101053.42;1873839;76;21011;-59
2021/09/03 06:18:02;;;;;;;2.50;1.02;;;;;;;17.12;62.67;101055.52;1873753;76;21040;-59
2021/09/03 06:20:31;;;;;;;3.40;1.10;;;;;;;17.08;62.54;101081.91;1873809;76;21517;-59
2021/09/03 06:23:00;;;;;;;5.47;0.90;;;;;;;17.06;62.74;101091.79;1873686;76;21050;-60
2021/09/03 06:25:29;;;;;;;3.77;1.12;;;;;;;16.98;63.04;101099.75;1872141;76;21102;-60
2021/09/03 06:27:57;;;;;;;3.87;1.20;;;;;;;16.82;63.52;101099.41;1865119;77;21023;-59
2021/09/03 06:30:26;;;;;;;6.67;1.00;;;;;;;16.66;64.28;101099.48;1865160;77;21052;-59
2021/09/03 06:32:55;;;;;;;3.08;1.22;;;;;;;16.46;64.68;101098.83;1865116;77;21159;-59
2021/09/03 06:35:23;;;;;;;3.15;1.30;;;;;;;16.39;64.99;101105.44;1865176;77;21137;-59
2021/09/03 06:37:52;;;;;;;2.30;1.00;;;;;;;16.30;65.60;101121.91;1864906;77;21027;-60
2021/09/03 06:40:21;;;;;;;2.90;1.40;;;;;;;16.14;66.23;101117.95;1865151;77;21055;-59
2021/09/03 06:42:49;;;;;;;4.65;1.15;;;;;;;16.12;66.45;101126.01;1865037;77;21059;-60
2021/09/03 06:45:18;;;;;;;4.40;1.80;;;;;;;16.13;66.93;101131.69;1865159;76;21039;-59
2021/09/03 06:47:47;;;;;;;1.92;1.20;;;;;;;16.07;67.67;101136.02;1865034;77;21055;-59
2021/09/03 06:50:16;;;;;;;3.27;1.30;;;;;;;16.09;67.95;101141.26;1865121;77;21535;-59
2021/09/03 06:52:45;;;;;;;1.77;1.10;;;;;;;16.15;68.02;101136.92;1865094;77;21067;-59
2021/09/03 06:55:14;;;;;;;2.58;1.20;;;;;;;16.33;68.05;101133.70;1865090;77;21118;-59
2021/09/03 06:57:43;;;;;;;5.42;2.05;;;;;;;16.48;67.96;101132.81;1865026;77;21537;-59
2021/09/03 07:00:13;;;;;;;3.98;1.30;;;;;;;16.70;67.82;101133.75;1864958;77;21051;-59
2021/09/03 07:02:41;;;;;;;3.02;1.50;;;;;;;17.05;67.35;101133.50;1865169;77;21051;-59
2021/09/03 07:05:12;;;;;;;3.52;1.10;;;;;;;17.46;67.07;101138.11;1865014;77;21097;-59
2021/09/03 07:07:40;;;;;;;6.33;1.40;;;;;;;18.23;66.53;101148.44;1865042;77;21048;-59
2021/09/03 07:10:10;;;;;;;4.70;1.47;;;;;;;18.85;65.38;101148.80;1865259;77;21616;-59
2021/09/03 07:12:39;;;;;;;2.45;1.00;;;;;;;19.55;64.25;101150.70;1865143;77;21129;-59
2021/09/03 07:15:09;;;;;;;4.80;1.07;;;;;;;20.16;63.34;101160.18;1865060;77;21040;-59
2021/09/03 07:17:38;;;;;;;2.47;1.20;;;;;;;19.93;63.29;101168.54;1864958;77;21111;-60
2021/09/03 07:20:07;;;;;;;10.58;1.40;;;;;;;19.54;63.60;101194.41;1865085;77;21552;-59
2021/09/03 07:22:36;;;;;;;4.92;1.30;;;;;;;19.03;64.16;101185.40;1865127;77;21051;-60
2021/09/03 07:25:05;;;;;;;4.97;1.10;;;;;;;18.50;64.50;101179.97;1865129;77;21043;-59
2021/09/03 07:27:34;;;;;;;3.00;1.00;;;;;;;18.07;65.28;101172.05;1865083;77;21133;-59
2021/09/03 07:30:03;;;;;;;3.25;1.05;;;;;;;17.80;66.16;101173.31;1864932;77;21569;-60
2021/09/03 07:32:35;;;;;;;3.95;1.37;;;;;;;17.60;66.55;101177.69;1865026;77;21043;-59
2021/09/03 07:35:02;;;;;;;5.65;1.40;;;;;;;17.50;66.86;101183.58;1864959;76;21020;-59
2021/09/03 07:37:31;;;;;;;2.83;1.40;;;;;;;17.22;67.81;101187.03;1865123;77;21047;-59
2021/09/03 07:39:59;;;;;;;4.83;1.40;;;;;;;17.17;68.22;101186.45;1865096;77;21043;-59
2021/09/03 07:42:28;;;;;;;3.50;1.25;;;;;;;17.11;68.33;101191.66;1865039;77;21063;-60
2021/09/03 07:44:57;;;;;;;8.15;1.80;;;;;;;17.14;68.88;101191.97;1865004;77;21137;-61
2021/09/03 07:47:26;;;;;;;2.83;1.30;;;;;;;17.38;69.43;101197.62;1865100;77;21591;-59
2021/09/03 07:49:55;;;;;;;3.27;1.40;;;;;;;17.75;69.45;101196.22;1865102;77;21039;-59
2021/09/03 07:52:23;;;;;;;2.77;1.00;;;;;;;18.01;69.23;101197.77;1865044;77;21566;-59
2021/09/03 07:54:52;;;;;;;3.77;1.60;;;;;;;18.43;69.08;101197.80;1865187;77;21136;-59
2021/09/03 07:57:21;;;;;;;6.00;1.50;;;;;;;18.75;68.97;101198.83;1864992;77;21251;-60
2021/09/03 07:59:49;;;;;;;3.80;1.32;;;;;;;18.89;68.55;101202.32;1865071;77;21055;-59
2021/09/03 08:02:18;;;;;;;1.87;1.20;;;;;;;18.67;68.45;101199.34;1865139;77;21075;-59
2021/09/03 08:04:47;;;;;;;5.95;1.20;;;;;;;18.49;68.72;101199.57;1864956;77;21122;-58
2021/09/03 08:07:16;;;;;;;4.50;1.30;;;;;;;18.44;68.40;101196.83;1864991;77;21111;-58
2021/09/03 08:09:44;;;;;;;3.05;1.47;;;;;;;18.61;68.28;101200.60;1864922;77;21128;-58
2021/09/03 08:12:13;;;;;;;3.17;0.90;;;;;;;18.65;68.27;101194.10;1865224;77;21063;-58
2021/09/03 08:14:42;;;;;;;2.75;1.32;;;;;;;18.52;67.48;101195.38;1864983;77;21043;-58
2021/09/03 08:17:10;;;;;;;3.17;1.60;;;;;;;18.16;67.44;101193.27;1864968;77;21047;-59
2021/09/03 08:19:39;;;;;;;9.73;1.65;;;;;;;18.10;68.05;101202.52;1865116;77;21434;-59
2021/09/03 08:22:08;;;;;;;3.95;1.20;;;;;;;18.31;68.23;101202.09;1864991;77;21142;-59
2021/09/03 08:24:37;;;;;;;4.10;1.40;;;;;;;19.49;67.89;101196.05;1865099;77;21489;-59
2021/09/03 08:27:06;;;;;;;7.05;2.00;;;;;;;19.68;67.51;101196.48;1865068;77;21079;-58
2021/09/03 08:29:35;;;;;;;4.03;1.20;;;;;;;19.48;67.12;101196.54;1865098;77;21518;-59
2021/09/03 08:32:04;;;;;;;7.22;1.50;;;;;;;19.19;67.03;101203.88;1865034;77;21490;-58
2021/09/03 08:34:33;;;;;;;3.27;1.25;;;;;;;18.95;66.62;101196.20;1864898;77;21071;-59
2021/09/03 08:37:02;;;;;;;4.22;1.35;;;;;;;19.97;65.02;101194.08;1865086;77;21091;-59
2021/09/03 08:39:30;;;;;;;2.62;1.45;;;;;;;21.26;63.56;101185.87;1865125;77;21465;-59
2021/09/03 08:41:59;;;;;;;5.92;1.10;;;;;;;22.44;61.27;101186.89;1865093;77;21024;-59
2021/09/03 08:44:29;;;;;;;4.60;1.25;;;;;;;23.42;58.03;101179.13;1865073;77;21071;-58
2021/09/03 08:46:58;;;;;;;3.20;1.42;;;;;;;24.39;56.82;101175.98;1864691;76;21048;-59
2021/09/03 08:49:28;;;;;;;2.40;1.00;;;;;;;25.02;54.77;101187.20;1864899;77;21157;-59
2021/09/03 08:51:58;;;;;;;1.80;0.98;;;;;;;25.59;52.64;101183.72;1864958;76;21541;-59
2021/09/03 08:54:27;;;;;;;2.50;1.02;;;;;;;25.35;51.30;101203.09;1865013;77;21070;-59
2021/09/03 08:56:55;;;;;;;1.65;1.10;;;;;;;24.11;50.31;101207.19;1865164;76;21071;-60
2021/09/03 08:59:24;;;;;;;2.92;1.00;;;;;;;24.36;50.27;101200.47;1865017;77;21027;-57
2021/09/03 09:02:10;;;;;;;1.82;0.95;;;;;;;24.75;48.33;101201.89;1864990;77;21141;-58
2021/09/03 09:04:41;;;;;;;5.10;1.30;;;;;;;25.29;49.06;101201.83;1865056;77;21028;-59
2021/09/03 09:07:10;;;;;;;5.20;1.07;;;;;;;25.86;48.58;101203.63;1864890;75;21557;-58
2021/09/03 09:09:44;;;;;;;1.32;0.80;;;;;;;25.37;45.70;101212.72;1864986;77;21055;-58
2021/09/03 09:12:18;;;;;;;1.75;0.93;;;;;;;24.47;46.76;101216.48;1864884;77;21043;-58
2021/09/03 09:15:07;;;;;;;6.03;1.40;;;;;;;23.60;47.29;101227.25;1864972;77;21090;-58
2021/09/03 09:17:41;;;;;;;3.00;0.90;;;;;;;23.77;47.74;101226.28;1864983;77;21124;-57
2021/09/03 09:20:12;;;;;;;5.85;1.67;;;;;;;24.10;47.11;101217.10;1864973;77;21039;-57
2021/09/03 09:23:07;;;;;;;7.78;1.00;;;;;;;23.67;47.68;101227.58;1864840;77;21109;-58
2021/09/03 09:25:37;;;;;;;2.17;0.90;;;;;;;23.53;47.98;101245.39;1865026;76;21575;-57
2021/09/03 09:28:17;;;;;;;3.33;1.65;;;;;;;23.20;48.33;101229.34;1860963;76;21076;-58
2021/09/03 09:30:47;;;;;;;2.35;1.00;;;;;;;23.48;47.93;101245.80;1852677;77;21052;-61
2021/09/03 09:33:18;;;;;;;4.40;1.10;;;;;;;23.42;46.78;101242.27;1852646;77;21474;-59
2021/09/03 09:35:52;;;;;;;3.17;0.85;;;;;;;23.75;46.52;101236.32;1852786;77;21091;-59
2021/09/03 09:38:24;;;;;;;2.67;0.88;;;;;;;24.58;46.08;101240.63;1852747;77;21044;-60
2021/09/03 09:40:55;;;;;;;2.92;0.90;;;;;;;25.29;44.46;101236.86;1852831;76;21506;-59
2021/09/03 09:43:32;;;;;;;2.60;0.80;;;;;;;25.86;43.33;101239.56;1852560;77;21084;-60
2021/09/03 09:46:10;;;;;;;4.67;0.95;;;;;;;25.76;41.57;101242.27;1852794;77;21051;-59
2021/09/03 09:48:54;;;;;;;2.62;0.75;;;;;;;24.48;42.33;101251.85;1852801;77;21510;-59
2021/09/03 09:51:26;;;;;;;3.02;1.00;;;;;;;24.06;43.36;101268.98;1850934;77;21001;-59
2021/09/03 09:54:01;;;;;;;1.47;0.85;;;;;;;24.69;43.12;101263.05;1852700;77;21048;-60
2021/09/03 09:56:32;;;;;;;1.82;0.72;;;;;;;25.11;42.96;101260.10;1852773;77;21071;-59
2021/09/03 09:59:03;;;;;;;3.80;1.12;;;;;;;25.53;42.13;101262.52;1852675;77;21051;-59
2021/09/03 10:01:35;;;;;;;3.20;1.15;;;;;;;25.75;41.78;101270.25;1852782;77;21123;-59
2021/09/03 10:04:09;;;;;;;2.27;0.80;;;;;;;25.70;41.20;101281.97;1852802;77;21056;-59
2021/09/03 10:06:40;;;;;;;4.20;0.98;;;;;;;25.70;40.91;101275.73;1852912;77;21012;-59
2021/09/03 10:09:11;;;;;;;3.25;0.95;;;;;;;26.01;40.47;101272.34;1852779;76;21534;-59
2021/09/03 10:11:43;;;;;;;4.00;1.20;;;;;;;26.36;40.38;101270.25;1852894;77;21055;-60
2021/09/03 10:14:15;;;;;;;4.90;1.00;;;;;;;26.45;39.20;101273.91;1852797;76;21023;-58
2021/09/03 10:16:47;;;;;;;4.15;0.75;;;;;;;26.67;39.15;101271.80;1852822;77;21117;-58
2021/09/03 10:19:18;;;;;;;1.77;0.80;;;;;;;26.82;38.29;101274.81;1852670;76;21499;-59
2021/09/03 10:21:49;;;;;;;3.10;1.17;;;;;;;25.94;38.73;101292.81;1852524;76;21213;-58
2021/09/03 10:24:25;;;;;;;3.60;0.98;;;;;;;25.02;39.93;101289.58;1852869;77;21646;-58
2021/09/03 10:26:53;;;;;;;3.37;0.88;;;;;;;24.50;40.94;101296.98;1852310;77;21052;-60
2021/09/03 10:29:30;;;;;;;2.37;0.88;;;;;;;24.37;41.14;101286.95;1859383;76;21091;-60
2021/09/03 10:32:16;;;;;;;3.83;0.90;;;;;;;24.73;41.13;101290.88;1865047;77;21079;-59
2021/09/03 10:34:54;;;;;;;2.05;0.80;;;;;;;25.08;40.39;101290.02;1865066;77;21056;-59
2021/09/03 10:37:27;;;;;;;3.17;0.70;;;;;;;25.33;40.62;101293.52;1864995;77;21023;-59
2021/09/03 10:40:03;;;;;;;1.77;0.70;;;;;;;25.57;40.27;101297.11;1865102;77;21090;-59
2021/09/03 10:42:48;;;;;;;1.45;0.60;;;;;;;25.57;39.64;101298.97;1865101;76;21012;-58
2021/09/03 10:45:35;;;;;;;3.10;0.95;;;;;;;25.28;39.28;101308.42;1864956;77;21055;-58
2021/09/03 10:48:11;;;;;;;2.77;0.70;;;;;;;24.45;39.67;101324.79;1864934;77;21118;-59
2021/09/03 10:50:39;;;;;;;3.58;0.70;;;;;;;24.44;40.26;101317.22;1864480;76;21146;-59
2021/09/03 10:53:14;;;;;;;1.20;0.78;;;;;;;24.57;39.69;101310.78;1864993;77;21573;-59
2021/09/03 10:55:55;;;;;;;2.58;0.80;;;;;;;24.75;39.55;101309.13;1865185;77;21047;-59
2021/09/03 10:58:52;;;;;;;2.92;0.50;;;;;;;24.68;40.49;101319.22;1864949;77;21141;-58
2021/09/03 11:01:27;;;;;;;2.62;0.93;;;;;;;24.47;40.30;101317.42;1865144;77;21043;-58
2021/09/03 11:04:01;;;;;;;2.90;0.80;;;;;;;24.41;39.97;101322.02;1865042;77;21459;-58
2021/09/03 11:06:33;;;;;;;3.05;0.82;;;;;;;24.53;40.59;101326.36;1865030;77;21079;-58
2021/09/03 11:09:05;;;;;;;2.70;0.70;;;;;;;24.56;40.31;101314.45;1865199;77;21047;-58
2021/09/03 11:11:39;;;;;;;1.65;0.70;;;;;;;24.15;39.81;101321.63;1865033;77;21141;-58
2021/09/03 11:14:13;;;;;;;1.62;0.70;;;;;;;23.97;40.41;101322.73;1865076;77;21094;-57
2021/09/03 11:16:44;;;;;;;3.83;0.90;;;;;;;24.03;41.06;101320.84;1865042;76;21051;-58
2021/09/03 11:19:22;;;;;;;2.27;0.90;;;;;;;24.08;41.06;101317.27;1864969;77;21047;-59
2021/09/03 11:22:07;;;;;;;2.80;0.85;;;;;;;23.87;41.27;101322.69;1916886;74;21114;-58
2021/09/03 11:24:39;;;;;;;0.60;0.60;;;;;;;23.44;42.32;101329.86;1922207;75;21160;-59
2021/09/03 11:27:11;;;;;;;2.25;0.90;;;;;;;23.16;42.36;101323.73;1922205;75;21043;-59
2021/09/03 11:29:53;;;;;;;2.02;0.60;;;;;;;22.99;42.88;101329.98;1922118;75;21055;-60
2021/09/03 11:32:27;;;;;;;3.08;1.05;;;;;;;22.73;43.09;101322.23;1922230;75;21038;-59
2021/09/03 11:35:13;;;;;;;5.00;0.78;;;;;;;22.34;43.25;101327.64;1922250;75;21011;-59
2021/09/03 11:37:50;;;;;;;1.07;0.55;;;;;;;22.14;43.61;101338.57;1922330;75;21105;-60